首页
METAR-TAF:

METAR-TAF

机场 :

Pope Air Force Base

費耶特維爾 / Pope, 北卡罗来纳州, 美国

纬度: 35-10N, 经度: 079-02W, 海拔: 61米

当前天气观测

该预报发布于1小时和0分钟前的04:56 UTC
静风
温度 -2°C
湿度 93%
气压 1021 hPa
能見度: 16.1公里
天空无云

METAR: KPOB 120456Z AUTO 00000KT 10SM CLR M02/M03 A3014 RMK AO2 SLP211 T10191035 401041020 $

时间: 00:56 (05:56 UTC)

预报

该预报发布于3小时和56分钟前的02:00 UTC
预报有效从12日的 02点(UTC)到 13日的 08点(UTC)
风速7节,风向西
能见度10公里或以上
天空无云
成为
从 12日的 19点(UTC)到 12日的 20点(UTC)
风速3节,风向
能见度10公里或以上
散云层高于20000英尺

TAF: KPOB 120200Z 1202/1308 26007KT 9999 SKC QNH3016INS BECMG 1219/1220 19003KT 9999 SCT200 QNH3016INS TX10/1220Z TNM03/1211Z

超过4000个机场的气象观测和天气预报(METAR&TAF报告)。

可查询的气象台以黄色和红色小点在地图上表示。

将鼠标移到小点上方,可查看气象台名称。

然后点击查看天气观测和预报。

如需切换地图:点击带黑十字的绿色按钮放大地图;点击带横线的绿色按钮缩小地图;或者点击绿色箭头查看邻近地区的地图。


METAR-TAF: